createdAt,value
2023-01-11T00:00:00.918Z,90
2023-01-11T00:16:03.435Z,89
2023-01-11T00:31:00.725Z,89
2023-01-11T00:46:02.740Z,90
2023-01-11T01:00:05.093Z,90
2023-01-11T01:16:02.095Z,90
2023-01-11T01:31:04.180Z,89
2023-01-11T01:46:01.368Z,89
2023-01-11T02:00:03.526Z,89
2023-01-11T02:16:00.684Z,90
2023-01-11T02:31:02.961Z,90
2023-01-11T02:46:04.852Z,90
2023-01-11T03:00:01.825Z,91
2023-01-11T03:16:04.021Z,92
2023-01-11T03:31:01.299Z,92
2023-01-11T03:46:03.543Z,92
2023-01-11T04:00:00.379Z,92
2023-01-11T04:16:02.794Z,92
2023-01-11T04:31:00.368Z,92
2023-01-11T04:46:02.116Z,91
2023-01-11T05:00:04.176Z,91
2023-01-11T05:16:01.437Z,91
2023-01-11T05:31:03.495Z,91
2023-01-11T05:46:00.892Z,89
2023-01-11T06:00:02.649Z,86
2023-01-11T06:16:04.912Z,83
2023-01-11T06:31:02.273Z,80
2023-01-11T06:46:04.587Z,79
2023-01-11T07:00:02.951Z,79
2023-01-11T07:16:03.604Z,80
2023-01-11T07:31:00.732Z,81
2023-01-11T07:46:03.750Z,82
2023-01-11T08:00:04.761Z,83
2023-01-11T08:16:01.992Z,83
2023-01-11T08:31:04.486Z,81
2023-01-11T08:46:01.374Z,76
2023-01-11T09:00:03.375Z,74
2023-01-11T09:16:00.800Z,69
2023-01-11T09:31:03.013Z,72
2023-01-11T09:46:00.300Z,71
2023-01-11T10:00:02.080Z,69
2023-01-11T10:18:38.764Z,67
2023-01-11T10:31:01.441Z,66
2023-01-11T10:46:03.660Z,66
2023-01-11T11:00:00.541Z,63
2023-01-11T11:16:03.017Z,63
2023-01-11T11:31:04.984Z,64
2023-01-11T11:46:02.263Z,63
2023-01-11T12:00:06.535Z,62
2023-01-11T12:16:01.643Z,62
2023-01-11T12:31:03.787Z,62
2023-01-11T12:46:00.824Z,62
2023-01-11T13:00:02.655Z,61
2023-01-11T13:16:00.097Z,60
2023-01-11T13:31:02.022Z,57
2023-01-11T13:46:04.023Z,57
2023-01-11T14:00:01.040Z,57
2023-01-11T14:16:03.358Z,59
2023-01-11T14:31:00.402Z,59
2023-01-11T14:46:02.682Z,59
2023-01-11T15:00:03.770Z,61
2023-01-11T15:16:01.924Z,63
2023-01-11T15:31:04.022Z,65
2023-01-11T15:46:02.684Z,68
2023-01-11T16:00:04.188Z,71
2023-01-11T16:16:00.510Z,73
2023-01-11T16:31:01.060Z,74
2023-01-11T16:46:04.563Z,75
2023-01-11T17:00:01.592Z,77
2023-01-11T17:16:03.905Z,78
2023-01-11T17:31:00.795Z,79
2023-01-11T17:46:02.897Z,81
2023-01-11T18:00:04.849Z,81
2023-01-11T18:16:02.154Z,83
2023-01-11T18:31:04.398Z,84
2023-01-11T18:46:01.591Z,85
2023-01-11T19:00:03.553Z,85
2023-01-11T19:16:00.812Z,85
2023-01-11T19:31:02.921Z,86
2023-01-11T19:46:05.006Z,86
2023-01-11T20:00:02.080Z,85
2023-01-11T20:16:04.392Z,85
2023-01-11T20:31:02.512Z,84
2023-01-11T20:46:03.693Z,84
2023-01-11T21:00:01.733Z,81
2023-01-11T21:16:02.964Z,79
2023-01-11T21:31:00.426Z,77
2023-01-11T21:46:02.396Z,70
2023-01-11T22:00:04.360Z,73
2023-01-11T22:16:01.798Z,75
2023-01-11T22:31:03.989Z,81
2023-01-11T22:46:01.196Z,84
2023-01-11T23:00:03.177Z,85
2023-01-11T23:16:00.416Z,87
2023-01-11T23:31:02.593Z,89
2023-01-11T23:46:06.524Z,89
